Time;durP1;ratioP1;P1;durP2;ratioP2;P2;SDS_P1;SDS_P2;PMS_P1;PMS_P2;Temp;Humidity;BMP_temperature;BMP_pressure;BME280_temperature;BME280_humidity;BME280_pressure;Samples;Min_cycle;Max_cycle;Signal;HPM_P1;HPM_P2
2023/04/24 05:09:38;;;;;;;;;;;;;;;;;;4984821;28;19910;-42
2023/04/24 05:12:04;;;;;;;;;;;;;;;;;;4988266;28;19956;-42
2023/04/24 05:14:29;;;;;;;;;;;;;;;;;;4987957;28;19949;-43
2023/04/24 05:16:55;;;;;;;;;;;;;;;;;;4971915;28;20375;-43
2023/04/24 05:19:21;;;;;;;;;;;;;;;;;;4968427;28;19913;-41
2023/04/24 05:21:48;;;;;;;;;;;;;;;;;;4968829;28;20366;-42
2023/04/24 05:24:14;;;;;;;;;;;;;;;;;;4983852;28;20368;-42
2023/04/24 05:26:40;;;;;;;;;;;;;;;;;;4988114;28;19914;-42
2023/04/24 05:29:06;;;;;;;;;;;;;;;;;;4988334;28;19928;-42
2023/04/24 05:31:32;;;;;;;;;;;;;;;;;;4988293;28;20328;-42
2023/04/24 05:33:58;;;;;;;;;;;;;;;;;;4986472;28;19913;-42
2023/04/24 05:36:24;;;;;;;;;;;;;;;;;;4988025;28;19905;-42
2023/04/24 05:38:50;;;;;;;;;;;;;;;;;;4987760;28;19910;-42
2023/04/24 05:41:16;;;;;;;;;;;;;;;;;;4988241;28;19910;-42
2023/04/24 05:43:42;;;;;;;;;;;;;;;;;;4991978;28;19906;-42
2023/04/24 05:46:08;;;;;;;;;;;;;;;;;;4990768;28;19906;-43
2023/04/24 05:48:35;;;;;;;;;;;;;;;;;;4992322;28;19909;-42
2023/04/24 05:51:01;;;;;;;;;;;;;;;;;;4986187;28;20384;-42
2023/04/24 05:53:27;;;;;;;;;;;;;;;;;;4973742;28;19910;-42
2023/04/24 05:55:53;;;;;;;;;;;;;;;;;;4973561;28;20018;-43
2023/04/24 05:58:19;;;;;;;;;;;;;;;;;;4982634;28;19914;-42
2023/04/24 06:00:46;;;;;;;;;;;;;;;;;;4978025;28;19996;-42
2023/04/24 06:03:13;;;;;;;;;;;;;;;;;;4974489;28;19917;-41
2023/04/24 06:05:39;;;;;;;;;;;;;;;;;;4991788;28;20347;-42
2023/04/24 06:08:06;;;;;;;;;;;;;;;;;;4991309;28;19953;-42
2023/04/24 06:10:32;;;;;;;;;;;;;;;;;;4992274;28;19914;-42
2023/04/24 06:13:00;;;;;;;;;;;;;;;;;;4991851;28;19996;-42
2023/04/24 06:15:26;;;;;;;;;;;;;;;;;;4991463;28;19997;-41
2023/04/24 06:17:51;;;;;;;;;;;;;;;;;;4990659;28;20004;-42
2023/04/24 06:20:17;;;;;;;;;;;;;;;;;;4983722;28;19976;-41
2023/04/24 06:22:43;;;;;;;;;;;;;;;;;;4973434;28;19968;-42
2023/04/24 06:25:09;;;;;;;;;;;;;;;;;;4986058;28;19909;-42
2023/04/24 06:27:35;;;;;;;;;;;;;;;;;;4980419;28;20364;-41
2023/04/24 06:30:01;;;;;;;;;;;;;;;;;;4991892;28;19921;-42
2023/04/24 06:32:27;;;;;;;;;;;;;;;;;;4986804;28;19912;-42
2023/04/24 06:34:53;;;;;;;;;;;;;;;;;;4975273;28;19929;-43
2023/04/24 06:37:19;;;;;;;;;;;;;;;;;;4992555;28;19910;-42
2023/04/24 06:39:45;;;;;;;;;;;;;;;;;;4992381;28;19937;-42
2023/04/24 06:42:11;;;;;;;;;;;;;;;;;;4975966;28;19917;-42
2023/04/24 06:44:40;;;;;;;;;;;;;;;;;;4976847;28;20423;-42
2023/04/24 06:47:07;;;;;;;;;;;;;;;;;;4985323;28;20300;-43
2023/04/24 06:49:33;;;;;;;;;;;;;;;;;;4992007;28;19906;-42
2023/04/24 06:51:59;;;;;;;;;;;;;;;;;;4973905;28;19916;-42
2023/04/24 06:54:25;;;;;;;;;;;;;;;;;;4971989;28;19906;-42
2023/04/24 06:56:51;;;;;;;;;;;;;;;;;;4989576;28;19916;-42
2023/04/24 06:59:17;;;;;;;;;;;;;;;;;;4992217;28;19975;-42
2023/04/24 07:01:43;;;;;;;;;;;;;;;;;;4991776;28;19945;-42
2023/04/24 07:04:09;;;;;;;;;;;;;;;;;;4986671;28;19928;-42
2023/04/24 07:06:35;;;;;;;;;;;;;;;;;;4978941;28;19945;-41
2023/04/24 07:09:03;;;;;;;;;;;;;;;;;;4989164;28;20352;-41
2023/04/24 07:11:29;;;;;;;;;;;;;;;;;;4984656;28;19961;-41
2023/04/24 07:13:55;;;;;;;;;;;;;;;;;;4985046;28;20423;-41
2023/04/24 07:16:21;;;;;;;;;;;;;;;;;;4977090;28;20017;-41
2023/04/24 07:18:47;;;;;;;;;;;;;;;;;;4973127;28;19993;-41
2023/04/24 07:21:12;;;;;;;;;;;;;;;;;;4971409;28;19971;-41
2023/04/24 07:23:41;;;;;;;;;;;;;;;;;;4982714;28;19917;-41
2023/04/24 07:26:06;;;;;;;;;;;;;;;;;;4990723;28;19909;-41
2023/04/24 07:28:32;;;;;;;;;;;;;;;;;;4990428;28;19913;-41
2023/04/24 07:30:59;;;;;;;;;;;;;;;;;;4984447;28;19914;-41
2023/04/24 07:33:25;;;;;;;;;;;;;;;;;;4983364;28;19957;-41
2023/04/24 07:35:51;;;;;;;;;;;;;;;;;;4990350;28;19913;-42
2023/04/24 07:38:20;;;;;;;;;;;;;;;;;;4992453;28;20033;-42
2023/04/24 07:40:46;;;;;;;;;;;;;;;;;;4982772;28;19921;-41
2023/04/24 07:43:12;;;;;;;;;;;;;;;;;;4976727;28;19914;-42
2023/04/24 07:45:39;;;;;;;;;;;;;;;;;;4982705;28;19917;-42
2023/04/24 07:48:05;;;;;;;;;;;;;;;;;;4979354;28;19918;-41
2023/04/24 07:50:31;;;;;;;;;;;;;;;;;;4987565;28;20484;-41
2023/04/24 07:52:57;;;;;;;;;;;;;;;;;;4979073;28;19952;-42
2023/04/24 07:55:23;;;;;;;;;;;;;;;;;;4988819;28;19944;-40
2023/04/24 07:57:49;;;;;;;;;;;;;;;;;;4987643;28;19925;-41
2023/04/24 08:00:15;;;;;;;;;;;;;;;;;;4970052;28;19906;-41
2023/04/24 08:02:41;;;;;;;;;;;;;;;;;;5003200;28;19918;-40
2023/04/24 08:05:07;;;;;;;;;;;;;;;;;;4988954;28;20011;-40
2023/04/24 08:07:33;;;;;;;;;;;;;;;;;;4984658;28;19925;-42
2023/04/24 08:10:00;;;;;;;;;;;;;;;;;;4987189;28;20380;-41
2023/04/24 08:12:26;;;;;;;;;;;;;;;;;;4987370;28;19941;-41
2023/04/24 08:14:52;;;;;;;;;;;;;;;;;;4988004;28;20432;-41
2023/04/24 08:17:18;;;;;;;;;;;;;;;;;;4990366;28;19905;-40
2023/04/24 08:19:47;;;;;;;;;;;;;;;;;;4984926;28;19906;-41
2023/04/24 08:22:13;;;;;;;;;;;;;;;;;;4970400;28;20005;-41
2023/04/24 08:24:39;;;;;;;;;;;;;;;;;;4970215;28;20350;-41
2023/04/24 08:27:05;;;;;;;;;;;;;;;;;;4969437;28;19910;-41
2023/04/24 08:29:31;;;;;;;;;;;;;;;;;;4989334;28;19909;-40
2023/04/24 08:31:57;;;;;;;;;;;;;;;;;;4989490;28;20024;-41
2023/04/24 08:34:23;;;;;;;;;;;;;;;;;;4989224;28;19967;-41
2023/04/24 08:36:49;;;;;;;;;;;;;;;;;;4975954;28;19910;-41
2023/04/24 08:39:15;;;;;;;;;;;;;;;;;;4978079;28;19928;-41
2023/04/24 08:41:42;;;;;;;;;;;;;;;;;;4970064;28;19941;-41
2023/04/24 08:44:08;;;;;;;;;;;;;;;;;;4969012;28;20002;-41
2023/04/24 08:46:34;;;;;;;;;;;;;;;;;;4969087;28;20001;-41
2023/04/24 08:49:00;;;;;;;;;;;;;;;;;;4968876;28;19910;-42
2023/04/24 08:51:26;;;;;;;;;;;;;;;;;;4968877;28;19910;-40
2023/04/24 08:53:52;;;;;;;;;;;;;;;;;;4968979;28;19910;-40
2023/04/24 08:56:18;;;;;;;;;;;;;;;;;;4970090;28;19917;-41
2023/04/24 08:58:44;;;;;;;;;;;;;;;;;;4987913;28;19928;-41
2023/04/24 09:01:10;;;;;;;;;;;;;;;;;;4988105;28;19946;-41
2023/04/24 09:03:36;;;;;;;;;;;;;;;;;;4988155;28;19949;-41
2023/04/24 09:06:02;;;;;;;;;;;;;;;;;;4987880;28;19964;-41
2023/04/24 09:08:28;;;;;;;;;;;;;;;;;;4988334;28;19906;-41
2023/04/24 09:10:54;;;;;;;;;;;;;;;;;;4988785;28;19909;-41
2023/04/24 09:13:20;;;;;;;;;;;;;;;;;;4988076;28;19914;-41
2023/04/24 09:15:46;;;;;;;;;;;;;;;;;;4988567;28;19906;-41
2023/04/24 09:18:12;;;;;;;;;;;;;;;;;;4986644;28;19914;-41
2023/04/24 09:20:37;;;;;;;;;;;;;;;;;;4987776;28;19992;-41
2023/04/24 09:23:04;;;;;;;;;;;;;;;;;;4988639;28;19909;-40
2023/04/24 09:25:30;;;;;;;;;;;;;;;;;;4986403;28;20040;-41
2023/04/24 09:27:56;;;;;;;;;;;;;;;;;;4982031;28;20019;-41
2023/04/24 09:30:22;;;;;;;;;;;;;;;;;;4986709;28;19993;-41
2023/04/24 09:32:48;;;;;;;;;;;;;;;;;;4975968;28;19914;-41
2023/04/24 09:35:15;;;;;;;;;;;;;;;;;;4988819;28;19906;-41
2023/04/24 09:37:41;;;;;;;;;;;;;;;;;;4982187;28;19918;-41
2023/04/24 09:40:07;;;;;;;;;;;;;;;;;;4986819;28;20559;-41
2023/04/24 09:42:33;;;;;;;;;;;;;;;;;;4988924;28;19918;-42
2023/04/24 09:44:59;;;;;;;;;;;;;;;;;;4983348;28;19914;-42
2023/04/24 09:47:25;;;;;;;;;;;;;;;;;;4981002;28;19918;-40
2023/04/24 09:49:51;;;;;;;;;;;;;;;;;;4986010;28;19909;-41
2023/04/24 09:52:17;;;;;;;;;;;;;;;;;;4987163;28;19983;-41
2023/04/24 09:54:43;;;;;;;;;;;;;;;;;;4986821;28;19952;-41
2023/04/24 09:57:09;;;;;;;;;;;;;;;;;;4975364;28;20318;-42
2023/04/24 09:59:35;;;;;;;;;;;;;;;;;;4983206;28;19921;-41
2023/04/24 10:02:01;;;;;;;;;;;;;;;;;;4972576;28;19914;-41
2023/04/24 10:04:27;;;;;;;;;;;;;;;;;;4982472;28;20023;-41
2023/04/24 10:06:53;;;;;;;;;;;;;;;;;;4985508;28;19924;-42
2023/04/24 10:09:19;;;;;;;;;;;;;;;;;;4986912;28;20012;-41
2023/04/24 10:11:45;;;;;;;;;;;;;;;;;;4986946;28;19942;-41
2023/04/24 10:14:11;;;;;;;;;;;;;;;;;;4987557;28;20018;-42
2023/04/24 10:16:37;;;;;;;;;;;;;;;;;;4987393;28;19912;-41
2023/04/24 10:19:03;;;;;;;;;;;;;;;;;;4980830;28;19914;-41
2023/04/24 10:21:30;;;;;;;;;;;;;;;;;;4971197;28;19914;-41
2023/04/24 10:23:56;;;;;;;;;;;;;;;;;;4988049;28;20455;-42
2023/04/24 10:26:22;;;;;;;;;;;;;;;;;;4973030;28;19921;-42
2023/04/24 10:28:48;;;;;;;;;;;;;;;;;;4969575;28;19972;-41
2023/04/24 10:31:14;;;;;;;;;;;;;;;;;;4971355;28;20004;-41
2023/04/24 10:33:41;;;;;;;;;;;;;;;;;;4971523;28;19962;-41
2023/04/24 10:36:07;;;;;;;;;;;;;;;;;;4971409;28;19910;-41
2023/04/24 10:38:33;;;;;;;;;;;;;;;;;;4977020;28;19913;-42
2023/04/24 10:40:58;;;;;;;;;;;;;;;;;;4978434;28;19913;-40
2023/04/24 10:43:24;;;;;;;;;;;;;;;;;;4989487;28;20412;-41
2023/04/24 10:45:50;;;;;;;;;;;;;;;;;;4989161;28;19941;-43
2023/04/24 10:48:17;;;;;;;;;;;;;;;;;;4988857;28;19917;-42
2023/04/24 10:50:43;;;;;;;;;;;;;;;;;;4987605;28;19913;-41
2023/04/24 10:53:10;;;;;;;;;;;;;;;;;;4988673;28;19936;-42
2023/04/24 10:55:36;;;;;;;;;;;;;;;;;;4989035;28;20459;-41
2023/04/24 10:58:02;;;;;;;;;;;;;;;;;;4997557;28;19971;-43
2023/04/24 11:00:28;;;;;;;;;;;;;;;;;;5008112;28;19909;-42
2023/04/24 11:02:55;;;;;;;;;;;;;;;;;;5008499;28;19905;-41
2023/04/24 11:05:21;;;;;;;;;;;;;;;;;;4998768;28;19916;-41
2023/04/24 11:07:46;;;;;;;;;;;;;;;;;;4988725;28;19910;-41
2023/04/24 11:10:12;;;;;;;;;;;;;;;;;;4980043;28;19910;-41
2023/04/24 11:12:38;;;;;;;;;;;;;;;;;;4968956;28;19965;-41
2023/04/24 11:15:04;;;;;;;;;;;;;;;;;;4969440;28;19910;-41
2023/04/24 11:17:31;;;;;;;;;;;;;;;;;;4969103;28;20281;-41
2023/04/24 11:19:57;;;;;;;;;;;;;;;;;;4969133;28;19910;-41
2023/04/24 11:22:24;;;;;;;;;;;;;;;;;;4972960;28;20017;-41
2023/04/24 11:24:51;;;;;;;;;;;;;;;;;;4978856;28;20374;-41
2023/04/24 11:27:19;;;;;;;;;;;;;;;;;;4988285;28;19916;-42
2023/04/24 11:29:45;;;;;;;;;;;;;;;;;;4971318;28;19910;-41
2023/04/24 11:32:11;;;;;;;;;;;;;;;;;;4975179;28;20000;-42
2023/04/24 11:34:37;;;;;;;;;;;;;;;;;;4990364;28;19905;-41
2023/04/24 11:37:03;;;;;;;;;;;;;;;;;;4990509;28;19916;-41
2023/04/24 11:39:29;;;;;;;;;;;;;;;;;;4980828;28;19914;-41
2023/04/24 11:41:55;;;;;;;;;;;;;;;;;;4970877;28;19967;-42
2023/04/24 11:44:21;;;;;;;;;;;;;;;;;;4980251;28;19909;-42
2023/04/24 11:46:47;;;;;;;;;;;;;;;;;;4990252;28;19913;-42
2023/04/24 11:49:13;;;;;;;;;;;;;;;;;;4989681;28;19914;-42
2023/04/24 11:51:39;;;;;;;;;;;;;;;;;;4989783;28;19910;-42
2023/04/24 11:54:05;;;;;;;;;;;;;;;;;;4982003;28;19909;-41
2023/04/24 11:56:30;;;;;;;;;;;;;;;;;;4989068;28;19909;-42
2023/04/24 11:58:56;;;;;;;;;;;;;;;;;;4988070;28;19987;-42
2023/04/24 12:01:23;;;;;;;;;;;;;;;;;;4982464;28;20004;-42
2023/04/24 12:03:49;;;;;;;;;;;;;;;;;;4987122;28;20415;-42
2023/04/24 12:06:15;;;;;;;;;;;;;;;;;;4989741;28;19933;-41
2023/04/24 12:08:41;;;;;;;;;;;;;;;;;;4984320;28;20377;-41
2023/04/24 12:11:07;;;;;;;;;;;;;;;;;;4972533;28;19910;-42
2023/04/24 12:13:33;;;;;;;;;;;;;;;;;;4970442;28;20011;-42
2023/04/24 12:15:59;;;;;;;;;;;;;;;;;;4970609;28;19953;-43
2023/04/24 12:18:25;;;;;;;;;;;;;;;;;;4982460;28;19905;-42
2023/04/24 12:20:51;;;;;;;;;;;;;;;;;;4988799;28;19940;-43
2023/04/24 12:23:17;;;;;;;;;;;;;;;;;;4988179;28;19909;-42
2023/04/24 12:25:43;;;;;;;;;;;;;;;;;;4989729;28;20385;-42
2023/04/24 12:28:12;;;;;;;;;;;;;;;;;;4989100;28;19913;-42
2023/04/24 12:30:38;;;;;;;;;;;;;;;;;;4987126;28;20042;-43
2023/04/24 12:33:04;;;;;;;;;;;;;;;;;;4970123;28;19945;-43
2023/04/24 12:35:31;;;;;;;;;;;;;;;;;;4972654;28;19971;-42
2023/04/24 12:37:57;;;;;;;;;;;;;;;;;;4989686;28;20561;-42
2023/04/24 12:40:23;;;;;;;;;;;;;;;;;;4988533;28;19933;-42
2023/04/24 12:42:49;;;;;;;;;;;;;;;;;;4989336;28;19913;-42
2023/04/24 12:45:15;;;;;;;;;;;;;;;;;;4988353;28;19945;-42
2023/04/24 12:47:41;;;;;;;;;;;;;;;;;;4988851;28;19920;-42
2023/04/24 12:50:07;;;;;;;;;;;;;;;;;;4988967;28;19906;-42
2023/04/24 12:52:33;;;;;;;;;;;;;;;;;;4987539;28;20009;-42
2023/04/24 12:54:59;;;;;;;;;;;;;;;;;;4975325;28;19918;-42
2023/04/24 12:57:25;;;;;;;;;;;;;;;;;;4969859;28;19931;-42
2023/04/24 12:59:51;;;;;;;;;;;;;;;;;;4988988;28;19940;-41
2023/04/24 13:02:19;;;;;;;;;;;;;;;;;;4989169;28;20000;-41
2023/04/24 13:04:46;;;;;;;;;;;;;;;;;;4981434;28;19960;-41
2023/04/24 13:07:13;;;;;;;;;;;;;;;;;;4982911;28;20443;-40
2023/04/24 13:09:39;;;;;;;;;;;;;;;;;;4985633;28;20458;-41
2023/04/24 13:12:05;;;;;;;;;;;;;;;;;;4987130;28;19917;-41
2023/04/24 13:14:32;;;;;;;;;;;;;;;;;;4984431;28;19956;-41
2023/04/24 13:16:58;;;;;;;;;;;;;;;;;;4986286;28;20121;-41
2023/04/24 13:19:24;;;;;;;;;;;;;;;;;;4980792;28;19913;-41
2023/04/24 13:21:50;;;;;;;;;;;;;;;;;;4985857;28;20004;-41
2023/04/24 13:24:17;;;;;;;;;;;;;;;;;;4986697;28;19994;-41
2023/04/24 13:26:43;;;;;;;;;;;;;;;;;;4968210;28;19917;-41
2023/04/24 13:29:09;;;;;;;;;;;;;;;;;;4969345;28;19922;-41
2023/04/24 13:31:34;;;;;;;;;;;;;;;;;;4968237;28;19945;-41
2023/04/24 13:34:00;;;;;;;;;;;;;;;;;;4968109;28;19941;-41
2023/04/24 13:36:27;;;;;;;;;;;;;;;;;;4976918;28;19913;-41
2023/04/24 13:38:53;;;;;;;;;;;;;;;;;;4985310;28;19952;-40
2023/04/24 13:41:19;;;;;;;;;;;;;;;;;;4975378;28;20321;-41
2023/04/24 13:43:45;;;;;;;;;;;;;;;;;;4983621;28;19917;-41
2023/04/24 13:46:11;;;;;;;;;;;;;;;;;;4980734;28;19914;-42
2023/04/24 13:48:37;;;;;;;;;;;;;;;;;;4986811;28;20287;-41
2023/04/24 13:51:03;;;;;;;;;;;;;;;;;;4986914;28;19906;-41
2023/04/24 13:53:28;;;;;;;;;;;;;;;;;;4983842;28;20400;-41
2023/04/24 13:55:54;;;;;;;;;;;;;;;;;;4968028;28;19921;-41
2023/04/24 13:58:21;;;;;;;;;;;;;;;;;;4981905;28;19910;-41
2023/04/24 14:00:47;;;;;;;;;;;;;;;;;;4982609;28;19910;-41
2023/04/24 14:03:13;;;;;;;;;;;;;;;;;;4970431;28;20313;-41
2023/04/24 14:05:39;;;;;;;;;;;;;;;;;;4981292;28;19914;-41
2023/04/24 14:08:06;;;;;;;;;;;;;;;;;;4990589;28;19972;-41
2023/04/24 14:10:32;;;;;;;;;;;;;;;;;;4990560;28;19910;-41
2023/04/24 14:12:58;;;;;;;;;;;;;;;;;;4990393;28;19924;-41
2023/04/24 14:15:24;;;;;;;;;;;;;;;;;;4987877;28;20451;-41
2023/04/24 14:17:49;;;;;;;;;;;;;;;;;;4997571;28;19914;-41
2023/04/24 14:20:16;;;;;;;;;;;;;;;;;;4990878;28;20413;-41
2023/04/24 14:22:42;;;;;;;;;;;;;;;;;;4988114;28;19969;-41
2023/04/24 14:25:08;;;;;;;;;;;;;;;;;;4995226;28;20381;-41
2023/04/24 14:27:34;;;;;;;;;;;;;;;;;;4990524;28;19913;-41
2023/04/24 14:30:01;;;;;;;;;;;;;;;;;;4990517;28;19906;-41
2023/04/24 14:32:27;;;;;;;;;;;;;;;;;;4986016;28;19916;-41
2023/04/24 14:34:53;;;;;;;;;;;;;;;;;;4989031;28;19917;-41
2023/04/24 14:37:19;;;;;;;;;;;;;;;;;;4988720;28;20292;-41
2023/04/24 14:39:45;;;;;;;;;;;;;;;;;;4984702;28;19910;-41
2023/04/24 14:42:11;;;;;;;;;;;;;;;;;;4971836;28;19965;-41
2023/04/24 14:44:37;;;;;;;;;;;;;;;;;;4982794;28;19915;-41
2023/04/24 14:47:04;;;;;;;;;;;;;;;;;;4984339;28;19913;-41
2023/04/24 14:49:30;;;;;;;;;;;;;;;;;;4984596;28;20385;-44
2023/04/24 14:51:56;;;;;;;;;;;;;;;;;;4981246;28;19905;-44
2023/04/24 14:54:23;;;;;;;;;;;;;;;;;;4986952;28;20350;-43
2023/04/24 14:56:48;;;;;;;;;;;;;;;;;;4978105;28;19934;-44
2023/04/24 14:59:14;;;;;;;;;;;;;;;;;;4993324;28;19996;-43
2023/04/24 15:01:40;;;;;;;;;;;;;;;;;;4979635;28;19932;-41
2023/04/24 15:04:06;;;;;;;;;;;;;;;;;;4983359;28;19910;-41
2023/04/24 15:06:32;;;;;;;;;;;;;;;;;;4988048;28;19920;-41
2023/04/24 15:08:58;;;;;;;;;;;;;;;;;;5001008;28;20013;-41
2023/04/24 15:11:24;;;;;;;;;;;;;;;;;;5009663;28;19967;-41
2023/04/24 15:13:50;;;;;;;;;;;;;;;;;;5009547;28;19909;-41
2023/04/24 15:16:16;;;;;;;;;;;;;;;;;;5010549;28;19912;-41
2023/04/24 15:18:42;;;;;;;;;;;;;;;;;;5002095;28;19918;-41
2023/04/24 15:21:08;;;;;;;;;;;;;;;;;;4992579;28;19910;-41
2023/04/24 15:23:34;;;;;;;;;;;;;;;;;;4990243;28;19988;-41
2023/04/24 15:26:01;;;;;;;;;;;;;;;;;;4989823;28;19972;-41
2023/04/24 15:28:27;;;;;;;;;;;;;;;;;;4989317;28;19916;-41
2023/04/24 15:30:53;;;;;;;;;;;;;;;;;;4989685;28;19906;-41
2023/04/24 15:33:19;;;;;;;;;;;;;;;;;;4990793;28;19957;-41
2023/04/24 15:35:46;;;;;;;;;;;;;;;;;;4990497;28;20028;-41
2023/04/24 15:38:12;;;;;;;;;;;;;;;;;;4976187;28;19993;-41
2023/04/24 15:40:38;;;;;;;;;;;;;;;;;;4970917;28;20001;-41
2023/04/24 15:43:04;;;;;;;;;;;;;;;;;;4970742;28;20001;-41
2023/04/24 15:45:30;;;;;;;;;;;;;;;;;;4982225;28;19914;-41
2023/04/24 15:47:56;;;;;;;;;;;;;;;;;;4987881;28;19968;-41
2023/04/24 15:50:22;;;;;;;;;;;;;;;;;;4993062;28;19910;-42
2023/04/24 15:52:48;;;;;;;;;;;;;;;;;;4993395;28;19932;-41
2023/04/24 15:55:14;;;;;;;;;;;;;;;;;;4990211;28;19905;-41
2023/04/24 15:57:40;;;;;;;;;;;;;;;;;;4993010;28;19992;-40
2023/04/24 16:00:06;;;;;;;;;;;;;;;;;;4996659;28;19909;-41
2023/04/24 16:02:32;;;;;;;;;;;;;;;;;;5000710;28;19941;-41
2023/04/24 16:04:58;;;;;;;;;;;;;;;;;;4995689;28;19944;-41
2023/04/24 16:07:24;;;;;;;;;;;;;;;;;;4989385;28;19953;-41
2023/04/24 16:09:50;;;;;;;;;;;;;;;;;;4989821;28;20030;-41
2023/04/24 16:12:17;;;;;;;;;;;;;;;;;;4989545;28;19996;-41
2023/04/24 16:14:43;;;;;;;;;;;;;;;;;;4988707;28;20388;-41
2023/04/24 16:17:09;;;;;;;;;;;;;;;;;;4986659;28;19920;-41
2023/04/24 16:19:35;;;;;;;;;;;;;;;;;;4987836;28;20008;-41
2023/04/24 16:22:02;;;;;;;;;;;;;;;;;;4988541;28;19910;-41
2023/04/24 16:24:27;;;;;;;;;;;;;;;;;;4988506;28;19910;-41
2023/04/24 16:26:53;;;;;;;;;;;;;;;;;;4987579;28;19913;-41
2023/04/24 16:29:19;;;;;;;;;;;;;;;;;;4988909;28;19905;-42
2023/04/24 16:31:45;;;;;;;;;;;;;;;;;;4989335;28;19913;-41
2023/04/24 16:34:11;;;;;;;;;;;;;;;;;;4984486;28;19980;-41
2023/04/24 16:36:37;;;;;;;;;;;;;;;;;;4986959;28;20401;-41
2023/04/24 16:39:04;;;;;;;;;;;;;;;;;;4988079;28;19905;-41
2023/04/24 16:41:30;;;;;;;;;;;;;;;;;;4988386;28;20489;-41
2023/04/24 16:43:56;;;;;;;;;;;;;;;;;;4987974;28;19906;-41
2023/04/24 16:46:23;;;;;;;;;;;;;;;;;;4988305;28;19910;-41
2023/04/24 16:48:49;;;;;;;;;;;;;;;;;;4987431;28;19909;-41
2023/04/24 16:51:16;;;;;;;;;;;;;;;;;;4974472;28;20419;-41
2023/04/24 16:53:42;;;;;;;;;;;;;;;;;;4975774;28;19925;-40
2023/04/24 16:56:08;;;;;;;;;;;;;;;;;;4983235;28;19916;-40
2023/04/24 16:58:35;;;;;;;;;;;;;;;;;;4980905;28;19914;-40
2023/04/24 17:01:00;;;;;;;;;;;;;;;;;;4977329;28;19952;-40
2023/04/24 17:03:26;;;;;;;;;;;;;;;;;;4981508;28;19953;-41
2023/04/24 17:05:52;;;;;;;;;;;;;;;;;;4976927;28;19917;-40
2023/04/24 17:08:18;;;;;;;;;;;;;;;;;;4976111;28;20025;-40
2023/04/24 17:10:44;;;;;;;;;;;;;;;;;;4965903;28;20001;-40
2023/04/24 17:13:10;;;;;;;;;;;;;;;;;;4979022;28;19959;-41
2023/04/24 17:15:39;;;;;;;;;;;;;;;;;;4982201;28;19914;-41
2023/04/24 17:18:04;;;;;;;;;;;;;;;;;;4969896;28;20009;-41
2023/04/24 17:20:30;;;;;;;;;;;;;;;;;;4977202;28;20024;-41
2023/04/24 17:22:56;;;;;;;;;;;;;;;;;;4984013;28;19917;-41
2023/04/24 17:25:22;;;;;;;;;;;;;;;;;;4985524;28;20210;-41
2023/04/24 17:27:48;;;;;;;;;;;;;;;;;;4985624;28;19968;-41
2023/04/24 17:30:14;;;;;;;;;;;;;;;;;;4985258;28;19912;-41
2023/04/24 17:32:40;;;;;;;;;;;;;;;;;;4972614;28;19918;-41
2023/04/24 17:35:06;;;;;;;;;;;;;;;;;;4969823;28;20008;-41
2023/04/24 17:37:33;;;;;;;;;;;;;;;;;;4980803;28;20004;-40
2023/04/24 17:39:59;;;;;;;;;;;;;;;;;;4982775;28;19914;-41
2023/04/24 17:42:26;;;;;;;;;;;;;;;;;;4980158;28;19910;-41
2023/04/24 17:44:51;;;;;;;;;;;;;;;;;;4978081;28;19917;-41
2023/04/24 17:47:19;;;;;;;;;;;;;;;;;;4981909;28;19920;-41
2023/04/24 17:49:45;;;;;;;;;;;;;;;;;;4974102;28;19910;-41
2023/04/24 17:52:11;;;;;;;;;;;;;;;;;;4983076;28;19917;-40
2023/04/24 17:54:37;;;;;;;;;;;;;;;;;;4974257;28;20419;-40
2023/04/24 17:57:02;;;;;;;;;;;;;;;;;;4976755;28;20135;-40
2023/04/24 17:59:28;;;;;;;;;;;;;;;;;;4978185;28;19956;-40
2023/04/24 18:01:56;;;;;;;;;;;;;;;;;;4978107;28;19941;-41
2023/04/24 18:04:24;;;;;;;;;;;;;;;;;;4976432;28;20395;-41
2023/04/24 18:06:50;;;;;;;;;;;;;;;;;;4985397;28;19913;-40
2023/04/24 18:09:19;;;;;;;;;;;;;;;;;;4976673;28;19913;-41
2023/04/24 18:11:45;;;;;;;;;;;;;;;;;;4979193;28;19925;-41
2023/04/24 18:14:11;;;;;;;;;;;;;;;;;;4975816;28;19921;-41
2023/04/24 18:16:37;;;;;;;;;;;;;;;;;;4977847;28;20238;-39
2023/04/24 18:19:03;;;;;;;;;;;;;;;;;;4976181;28;19913;-41
2023/04/24 18:21:30;;;;;;;;;;;;;;;;;;4979282;28;19941;-41
2023/04/24 18:23:59;;;;;;;;;;;;;;;;;;4977225;28;20020;-41
2023/04/24 18:26:25;;;;;;;;;;;;;;;;;;4982992;28;19924;-41
2023/04/24 18:28:51;;;;;;;;;;;;;;;;;;4974878;28;20440;-41
2023/04/24 18:31:17;;;;;;;;;;;;;;;;;;4978116;28;19937;-41
2023/04/24 18:33:43;;;;;;;;;;;;;;;;;;4975835;28;19938;-41
2023/04/24 18:36:09;;;;;;;;;;;;;;;;;;4976690;28;19968;-41
2023/04/24 18:38:35;;;;;;;;;;;;;;;;;;4981269;28;20382;-41
2023/04/24 18:41:01;;;;;;;;;;;;;;;;;;4971720;28;19920;-41
2023/04/24 18:43:27;;;;;;;;;;;;;;;;;;4974783;28;19918;-41
2023/04/24 18:45:54;;;;;;;;;;;;;;;;;;4973472;28;19926;-41
2023/04/24 18:48:20;;;;;;;;;;;;;;;;;;4983289;28;19922;-40
2023/04/24 18:50:47;;;;;;;;;;;;;;;;;;4983323;28;19909;-41
2023/04/24 18:53:16;;;;;;;;;;;;;;;;;;4979185;28;19910;-40
2023/04/24 18:55:43;;;;;;;;;;;;;;;;;;4975552;28;20016;-40
2023/04/24 18:58:09;;;;;;;;;;;;;;;;;;4979415;28;20444;-41
2023/04/24 19:00:36;;;;;;;;;;;;;;;;;;4975553;28;19910;-41
2023/04/24 19:03:03;;;;;;;;;;;;;;;;;;4969239;28;19932;-41
2023/04/24 19:05:29;;;;;;;;;;;;;;;;;;4980166;28;20284;-41
2023/04/24 19:07:55;;;;;;;;;;;;;;;;;;4997546;28;19966;-41
2023/04/24 19:10:21;;;;;;;;;;;;;;;;;;4992806;28;20344;-41
2023/04/24 19:12:53;;;;;;;;;;;;;;;;;;4993656;28;20259;-41
2023/04/24 19:15:19;;;;;;;;;;;;;;;;;;4989377;28;19921;-41
2023/04/24 19:17:47;;;;;;;;;;;;;;;;;;4970252;28;19906;-41
2023/04/24 19:20:13;;;;;;;;;;;;;;;;;;4969538;28;19936;-41
2023/04/24 19:22:39;;;;;;;;;;;;;;;;;;4969212;28;20357;-40
2023/04/24 19:25:05;;;;;;;;;;;;;;;;;;5002547;28;19912;-41
2023/04/24 19:27:31;;;;;;;;;;;;;;;;;;4999626;28;20345;-41
2023/04/24 19:29:57;;;;;;;;;;;;;;;;;;4987698;28;20000;-41
2023/04/24 19:32:23;;;;;;;;;;;;;;;;;;4985928;28;19916;-41
2023/04/24 19:34:49;;;;;;;;;;;;;;;;;;4977287;28;19941;-41
2023/04/24 19:37:15;;;;;;;;;;;;;;;;;;4979765;28;19921;-41
2023/04/24 19:39:41;;;;;;;;;;;;;;;;;;4975789;28;19909;-41
2023/04/24 19:42:06;;;;;;;;;;;;;;;;;;4985127;28;19918;-41
2023/04/24 19:44:32;;;;;;;;;;;;;;;;;;4981569;28;19956;-41
2023/04/24 19:46:58;;;;;;;;;;;;;;;;;;4982034;28;19979;-41
2023/04/24 19:49:24;;;;;;;;;;;;;;;;;;4974347;28;19914;-41
2023/04/24 19:51:50;;;;;;;;;;;;;;;;;;4980916;28;19910;-40
2023/04/24 19:54:18;;;;;;;;;;;;;;;;;;4972707;28;19910;-41
2023/04/24 19:56:44;;;;;;;;;;;;;;;;;;4976083;28;19910;-41
2023/04/24 19:59:10;;;;;;;;;;;;;;;;;;4986488;28;20383;-40
2023/04/24 20:01:38;;;;;;;;;;;;;;;;;;4970244;28;19983;-41
2023/04/24 20:04:06;;;;;;;;;;;;;;;;;;4984797;28;19937;-41
2023/04/24 20:06:32;;;;;;;;;;;;;;;;;;4980499;28;19914;-41
2023/04/24 20:08:58;;;;;;;;;;;;;;;;;;4969174;28;19906;-41
2023/04/24 20:11:24;;;;;;;;;;;;;;;;;;4968670;28;19983;-41
2023/04/24 20:13:50;;;;;;;;;;;;;;;;;;4967843;28;20389;-41
2023/04/24 20:16:16;;;;;;;;;;;;;;;;;;4968384;28;19955;-40
2023/04/24 20:18:43;;;;;;;;;;;;;;;;;;4968429;28;19966;-41
2023/04/24 20:21:09;;;;;;;;;;;;;;;;;;4968629;28;20038;-40
2023/04/24 20:23:35;;;;;;;;;;;;;;;;;;4968329;28;19906;-41
2023/04/24 20:26:03;;;;;;;;;;;;;;;;;;4967432;28;20001;-41
2023/04/24 20:28:29;;;;;;;;;;;;;;;;;;4968357;28;19910;-41
2023/04/24 20:30:55;;;;;;;;;;;;;;;;;;4968382;28;20473;-41
2023/04/24 20:33:22;;;;;;;;;;;;;;;;;;4968964;28;19910;-41
2023/04/24 20:35:48;;;;;;;;;;;;;;;;;;4968697;28;19914;-41
2023/04/24 20:38:14;;;;;;;;;;;;;;;;;;4969433;28;19933;-41
2023/04/24 20:40:40;;;;;;;;;;;;;;;;;;4982566;28;20080;-42
2023/04/24 20:43:07;;;;;;;;;;;;;;;;;;4987480;28;19981;-40
2023/04/24 20:45:33;;;;;;;;;;;;;;;;;;4985531;28;20361;-41
2023/04/24 20:47:59;;;;;;;;;;;;;;;;;;4976854;28;19969;-41
2023/04/24 20:50:26;;;;;;;;;;;;;;;;;;4967920;28;20004;-41
2023/04/24 20:52:52;;;;;;;;;;;;;;;;;;4967920;28;19997;-41
2023/04/24 20:55:19;;;;;;;;;;;;;;;;;;4982828;28;19916;-41
2023/04/24 20:57:45;;;;;;;;;;;;;;;;;;4985848;28;20411;-40
2023/04/24 21:00:11;;;;;;;;;;;;;;;;;;4986884;28;20008;-40
2023/04/24 21:02:37;;;;;;;;;;;;;;;;;;4985611;28;19920;-41
2023/04/24 21:05:03;;;;;;;;;;;;;;;;;;4987055;28;20451;-41
2023/04/24 21:07:30;;;;;;;;;;;;;;;;;;4972164;28;19910;-41
2023/04/24 21:09:56;;;;;;;;;;;;;;;;;;4981259;28;19910;-41
2023/04/24 21:12:22;;;;;;;;;;;;;;;;;;4985226;28;19925;-41
2023/04/24 21:14:48;;;;;;;;;;;;;;;;;;4987110;28;19917;-41
2023/04/24 21:17:14;;;;;;;;;;;;;;;;;;4987236;28;20016;-40
2023/04/24 21:19:40;;;;;;;;;;;;;;;;;;4985450;28;19909;-41
2023/04/24 21:22:06;;;;;;;;;;;;;;;;;;4984075;28;19972;-41
2023/04/24 21:24:33;;;;;;;;;;;;;;;;;;4967676;28;19910;-41
2023/04/24 21:27:00;;;;;;;;;;;;;;;;;;4975858;28;19916;-41
2023/04/24 21:29:26;;;;;;;;;;;;;;;;;;4987252;28;20386;-41
2023/04/24 21:31:51;;;;;;;;;;;;;;;;;;4987325;28;19953;-40
2023/04/24 21:34:17;;;;;;;;;;;;;;;;;;4987428;28;19909;-41
2023/04/24 21:36:44;;;;;;;;;;;;;;;;;;4987068;28;19906;-41
2023/04/24 21:39:10;;;;;;;;;;;;;;;;;;4978816;28;19906;-41
2023/04/24 21:41:36;;;;;;;;;;;;;;;;;;4980583;28;19910;-41
2023/04/24 21:44:02;;;;;;;;;;;;;;;;;;4986925;28;19960;-41
2023/04/24 21:46:28;;;;;;;;;;;;;;;;;;4978803;28;20363;-41